Wilson Clyde — 8PRV — position and weather

sailwx.info

Track history (hours):
 
Tides and Currents Weather Stations Pressure Air Temp Water Temp Dewpoint Dewpoint Depression Visibility Wind Speed Wind Dir Waves Ship Positions

Wilson Clyde

Last reported at 2014-Dec-21 20:23 UTC. Time now 2014-Dec-21 22:16 UTC.
Position N 50°17' W 001°60'.

Length 100 m; draft 4.1 m.

Type: Ship. MMSI: 314187000.

Date/timePositionNaut miles runAvg speedWind from/ knotsBaromVisibWave heightAir tempDewpointWater temp
2014-Dec-21 20:23N 50°17' W 001°60'204 8.8
2014-Dec-20 21:11N 51°49' W 006°49'812.1
2014-Dec-20 20:33N 51°56' W 006°53'1212.3
2014-Dec-20 19:33N 52°08' W 006°59'8 8.2
2014-Dec-20 18:33N 52°16' W 007°02'0 0.0
2014-Dec-20 17:33N 52°16' W 007°02'0 0.0
2014-Dec-20 16:27N 52°16' W 007°02'0 0.0
2014-Dec-20 15:33N 52°16' W 007°02'0 0.0
2014-Dec-20 14:33N 52°16' W 007°02'0 0.0
2014-Dec-20 13:33N 52°16' W 007°02'0 0.0
2014-Dec-20 12:30N 52°16' W 007°02'0 0.0
2014-Dec-20 11:33N 52°16' W 007°02'0 0.0
2014-Dec-20 10:33N 52°16' W 007°02'0 0.0
2014-Dec-20 09:27N 52°16' W 007°02'0 0.0
2014-Dec-20 08:33N 52°16' W 007°02'0 0.0
2014-Dec-20 07:30N 52°16' W 007°02'0 0.0
2014-Dec-20 06:33N 52°16' W 007°02'0 0.0
2014-Dec-20 05:33N 52°16' W 007°02'0 0.0
2014-Dec-20 04:33N 52°16' W 007°02'0 0.0
2014-Dec-20 03:33N 52°16' W 007°02'0 0.0
2014-Dec-20 02:33N 52°16' W 007°02'0 0.0
2014-Dec-20 01:30N 52°16' W 007°02'0 0.0
2014-Dec-20 00:33N 52°16' W 007°02'0 0.0
2014-Dec-19 23:33N 52°16' W 007°02'0 0.0
2014-Dec-19 22:33N 52°16' W 007°02'0 0.0
2014-Dec-19 21:33N 52°16' W 007°02'2 1.6
2014-Dec-19 20:33N 52°15' W 006°60'6 6.3
2014-Dec-19 19:33N 52°09' W 006°58'0 0.2
2014-Dec-19 18:24N 52°09' W 006°58'0 0.2
2014-Dec-19 17:34N 52°09' W 006°58'0 0.2
2014-Dec-19 16:34N 52°09' W 006°58'7 6.9
2014-Dec-19 15:33N 52°04' W 006°49'8 8.0
2014-Dec-19 14:33N 52°03' W 006°37'8 8.2
2014-Dec-19 13:33N 52°05' W 006°24'9 9.2
2014-Dec-19 12:33N 52°09' W 006°10'1110.7
2014-Dec-19 11:33N 52°19' W 006°03'1212.1
2014-Dec-19 10:33N 52°30' W 005°56'109 9.9
2014-Dec-18 23:33N 54°17' W 005°19'10 9.5
2014-Dec-18 22:33N 54°26' W 005°18'10 9.6
2014-Dec-18 21:33N 54°35' W 005°23'9 9.2
2014-Dec-18 20:33N 54°43' W 005°32'15 3.3
2014-Dec-18 16:05N 54°37' W 005°55'0 0.0
2014-Dec-18 14:29N 54°37' W 005°55'0 0.0
2014-Dec-18 13:32N 54°37' W 005°55'0 0.0
2014-Dec-18 12:29N 54°37' W 005°55'0 0.0
2014-Dec-18 11:29N 54°37' W 005°55'0 0.0
2014-Dec-17 18:29N 54°37' W 005°55'9 3.1
2014-Dec-17 15:33N 54°43' W 005°42'1010.3
2014-Dec-17 14:33N 54°53' W 005°38'192 7.5
2014-Dec-16 13:05N 58°04' W 006°07'510.1
2014-Dec-16 12:33N 58°08' W 006°01'10 9.6
2014-Dec-16 11:33N 58°15' W 005°48'10 9.9
2014-Dec-16 10:32N 58°22' W 005°35'50 7.0
2014-Dec-16 03:27N 58°57' W 004°27'5 5.4
2014-Dec-16 02:31N 59°00' W 004°20'5 5.0
2014-Dec-16 01:29N 59°03' W 004°11'4 4.4
2014-Dec-16 00:33N 59°06' W 004°05'5 5.0
2014-Dec-15 23:33N 59°09' W 003°57'6 6.2
2014-Dec-15 22:33N 59°13' W 003°48'5 5.1
2014-Dec-15 21:33N 59°16' W 003°40'5 5.3
2014-Dec-15 20:33N 59°19' W 003°32'6 5.7
2014-Dec-15 19:33N 59°23' W 003°24'  
Track history (hours):
 
Tides and Currents Weather Stations Pressure Air Temp Water Temp Dewpoint Dewpoint Depression Visibility Wind Speed Wind Dir Waves Ship Positions

Wilson Clyde

Last reported at 2014-Dec-21 20:23 UTC. Time now 2014-Dec-21 22:16 UTC.
Position N 50°17' W 001°60'.

Length 100 m; draft 4.1 m.

Type: Ship. MMSI: 314187000.

Date/timePositionNaut miles runAvg speedWind from/ knotsBaromVisibWave heightAir tempDewpointWater temp
2014-Dec-21 20:23N 50°17' W 001°60'204 8.8
2014-Dec-20 21:11N 51°49' W 006°49'812.1
2014-Dec-20 20:33N 51°56' W 006°53'1212.3
2014-Dec-20 19:33N 52°08' W 006°59'8 8.2
2014-Dec-20 18:33N 52°16' W 007°02'0 0.0
2014-Dec-20 17:33N 52°16' W 007°02'0 0.0
2014-Dec-20 16:27N 52°16' W 007°02'0 0.0
2014-Dec-20 15:33N 52°16' W 007°02'0 0.0
2014-Dec-20 14:33N 52°16' W 007°02'0 0.0
2014-Dec-20 13:33N 52°16' W 007°02'0 0.0
2014-Dec-20 12:30N 52°16' W 007°02'0 0.0
2014-Dec-20 11:33N 52°16' W 007°02'0 0.0
2014-Dec-20 10:33N 52°16' W 007°02'0 0.0
2014-Dec-20 09:27N 52°16' W 007°02'0 0.0
2014-Dec-20 08:33N 52°16' W 007°02'0 0.0
2014-Dec-20 07:30N 52°16' W 007°02'0 0.0
2014-Dec-20 06:33N 52°16' W 007°02'0 0.0
2014-Dec-20 05:33N 52°16' W 007°02'0 0.0
2014-Dec-20 04:33N 52°16' W 007°02'0 0.0
2014-Dec-20 03:33N 52°16' W 007°02'0 0.0
2014-Dec-20 02:33N 52°16' W 007°02'0 0.0
2014-Dec-20 01:30N 52°16' W 007°02'0 0.0
2014-Dec-20 00:33N 52°16' W 007°02'0 0.0
2014-Dec-19 23:33N 52°16' W 007°02'0 0.0
2014-Dec-19 22:33N 52°16' W 007°02'0 0.0
2014-Dec-19 21:33N 52°16' W 007°02'2 1.6
2014-Dec-19 20:33N 52°15' W 006°60'6 6.3
2014-Dec-19 19:33N 52°09' W 006°58'0 0.2
2014-Dec-19 18:24N 52°09' W 006°58'0 0.2
2014-Dec-19 17:34N 52°09' W 006°58'0 0.2
2014-Dec-19 16:34N 52°09' W 006°58'7 6.9
2014-Dec-19 15:33N 52°04' W 006°49'8 8.0
2014-Dec-19 14:33N 52°03' W 006°37'8 8.2
2014-Dec-19 13:33N 52°05' W 006°24'9 9.2
2014-Dec-19 12:33N 52°09' W 006°10'1110.7
2014-Dec-19 11:33N 52°19' W 006°03'1212.1
2014-Dec-19 10:33N 52°30' W 005°56'109 9.9
2014-Dec-18 23:33N 54°17' W 005°19'10 9.5
2014-Dec-18 22:33N 54°26' W 005°18'10 9.6
2014-Dec-18 21:33N 54°35' W 005°23'9 9.2
2014-Dec-18 20:33N 54°43' W 005°32'15 3.3
2014-Dec-18 16:05N 54°37' W 005°55'0 0.0
2014-Dec-18 14:29N 54°37' W 005°55'0 0.0
2014-Dec-18 13:32N 54°37' W 005°55'0 0.0
2014-Dec-18 12:29N 54°37' W 005°55'0 0.0
2014-Dec-18 11:29N 54°37' W 005°55'0 0.0
2014-Dec-17 18:29N 54°37' W 005°55'9 3.1
2014-Dec-17 15:33N 54°43' W 005°42'1010.3
2014-Dec-17 14:33N 54°53' W 005°38'192 7.5
2014-Dec-16 13:05N 58°04' W 006°07'510.1
2014-Dec-16 12:33N 58°08' W 006°01'10 9.6
2014-Dec-16 11:33N 58°15' W 005°48'10 9.9
2014-Dec-16 10:32N 58°22' W 005°35'50 7.0
2014-Dec-16 03:27N 58°57' W 004°27'5 5.4
2014-Dec-16 02:31N 59°00' W 004°20'5 5.0
2014-Dec-16 01:29N 59°03' W 004°11'4 4.4
2014-Dec-16 00:33N 59°06' W 004°05'5 5.0
2014-Dec-15 23:33N 59°09' W 003°57'6 6.2
2014-Dec-15 22:33N 59°13' W 003°48'5 5.1
2014-Dec-15 21:33N 59°16' W 003°40'5 5.3
2014-Dec-15 20:33N 59°19' W 003°32'6 5.7
2014-Dec-15 19:33N 59°23' W 003°24'  

Dump ship's entire track history